createdAt,value
2019-05-02T00:03:59.333Z,17.20
2019-05-02T00:06:26.904Z,20.00
2019-05-02T00:08:54.143Z,16.87
2019-05-02T00:11:21.275Z,16.80
2019-05-02T00:13:48.589Z,20.77
2019-05-02T00:16:15.837Z,18.80
2019-05-02T00:18:43.039Z,19.60
2019-05-02T00:21:10.463Z,18.80
2019-05-02T00:23:37.541Z,17.77
2019-05-02T00:26:04.998Z,20.13
2019-05-02T00:28:32.555Z,19.33
2019-05-02T00:31:00.012Z,17.30
2019-05-02T00:33:29.221Z,18.70
2019-05-02T00:35:56.625Z,17.50
2019-05-02T00:38:23.732Z,19.53
2019-05-02T00:40:51.018Z,19.10
2019-05-02T00:43:18.125Z,19.43
2019-05-02T00:45:45.820Z,20.93
2019-05-02T00:50:55.215Z,18.03
2019-05-02T00:53:44.467Z,20.00
2019-05-02T00:56:10.645Z,20.07
2019-05-02T00:58:38.264Z,19.77
2019-05-02T01:01:44.392Z,22.17
2019-05-02T01:04:30.860Z,18.93
2019-05-02T01:06:58.304Z,19.03
2019-05-02T01:09:25.386Z,20.23
2019-05-02T01:11:52.448Z,20.83
2019-05-02T01:14:20.106Z,21.70
2019-05-02T01:16:49.423Z,19.33
2019-05-02T01:19:17.239Z,21.47
2019-05-02T01:21:45.382Z,22.70
2019-05-02T01:24:12.486Z,18.13
2019-05-02T01:32:31.340Z,21.13
2019-05-02T01:35:17.927Z,18.70
2019-05-02T01:38:04.425Z,18.90
2019-05-02T01:40:31.950Z,18.10
2019-05-02T01:43:41.901Z,21.87
2019-05-02T01:46:08.704Z,22.23
2019-05-02T01:48:35.433Z,20.80
2019-05-02T01:51:04.527Z,21.73
2019-05-02T01:53:34.211Z,20.20
2019-05-02T01:56:00.820Z,23.57
2019-05-02T01:58:27.979Z,21.50
2019-05-02T02:01:08.399Z,23.23
2019-05-02T02:03:40.639Z,22.83
2019-05-02T02:06:08.245Z,22.17
2019-05-02T02:08:34.123Z,23.97
2019-05-02T02:11:01.239Z,25.10
2019-05-02T02:13:31.172Z,22.17
2019-05-02T02:16:00.119Z,20.10
2019-05-02T02:21:35.498Z,20.80
2019-05-02T02:24:25.217Z,20.77
2019-05-02T02:26:51.515Z,18.87
2019-05-02T02:29:18.600Z,19.33
2019-05-02T02:31:48.218Z,21.23
2019-05-02T02:34:21.393Z,19.00
2019-05-02T02:36:44.046Z,17.27
2019-05-02T02:39:14.415Z,17.73
2019-05-02T02:41:45.234Z,17.57
2019-05-02T02:44:33.677Z,17.90
2019-05-02T02:46:58.178Z,18.83
2019-05-02T02:49:25.331Z,17.00
2019-05-02T02:51:57.949Z,16.37
2019-05-02T02:54:21.757Z,17.63
2019-05-02T02:56:49.036Z,17.43
2019-05-02T02:59:19.453Z,16.23
2019-05-02T03:01:45.312Z,20.30
2019-05-02T03:04:12.502Z,18.67
2019-05-02T03:06:44.855Z,17.70
2019-05-02T03:09:09.104Z,18.43
2019-05-02T03:17:10.557Z,17.10
2019-05-02T03:19:37.281Z,17.70
2019-05-02T03:22:04.310Z,17.90
2019-05-02T03:24:36.438Z,18.70
2019-05-02T03:27:02.141Z,16.77
2019-05-02T03:29:39.731Z,17.33
2019-05-02T03:32:26.156Z,19.93
2019-05-02T03:34:44.824Z,15.63
2019-05-02T03:37:03.136Z,17.37
2019-05-02T03:39:25.041Z,15.63
2019-05-02T03:41:55.831Z,14.93
2019-05-02T03:45:04.988Z,16.80
2019-05-02T03:47:36.645Z,16.20
2019-05-02T03:52:59.163Z,15.73
2019-05-02T03:55:30.781Z,15.13
2019-05-02T04:04:01.417Z,13.30
2019-05-02T04:09:39.069Z,12.93
2019-05-02T04:12:44.621Z,15.33
2019-05-02T04:15:11.700Z,16.07
2019-05-02T04:18:00.117Z,14.80
2019-05-02T04:20:27.342Z,13.37
2019-05-02T04:22:54.595Z,13.60
2019-05-02T04:25:28.011Z,13.87
2019-05-02T04:27:51.177Z,12.93
2019-05-02T04:30:18.501Z,14.27
2019-05-02T04:33:05.598Z,12.40
2019-05-02T04:35:34.778Z,12.20
2019-05-02T04:38:08.020Z,14.57
2019-05-02T04:40:34.831Z,13.20
2019-05-02T04:43:02.062Z,12.90
2019-05-02T04:45:45.961Z,13.67
2019-05-02T04:48:03.788Z,16.87
2019-05-02T04:50:29.498Z,14.13
2019-05-02T04:52:59.256Z,14.93
2019-05-02T04:55:30.245Z,15.80
2019-05-02T05:00:53.620Z,13.33
2019-05-02T05:03:20.605Z,15.30
2019-05-02T05:05:48.270Z,16.80
2019-05-02T05:08:19.644Z,13.07
2019-05-02T05:10:45.151Z,13.60
2019-05-02T05:13:19.762Z,12.73
2019-05-02T05:15:48.853Z,13.57
2019-05-02T05:18:14.358Z,11.93
2019-05-02T05:20:40.578Z,12.27
2019-05-02T05:28:35.131Z,10.87
2019-05-02T05:31:02.097Z,10.37
2019-05-02T05:33:29.234Z,8.87
2019-05-02T05:35:57.830Z,11.10
2019-05-02T05:38:28.530Z,9.83
2019-05-02T05:40:54.676Z,11.20
2019-05-02T05:43:21.765Z,11.00
2019-05-02T05:45:56.164Z,9.67
2019-05-02T05:48:18.371Z,10.93
2019-05-02T05:50:47.780Z,9.37
2019-05-02T05:53:19.175Z,10.37
2019-05-02T05:55:47.368Z,9.23
2019-05-02T05:58:15.742Z,11.17
2019-05-02T06:00:45.998Z,9.13
2019-05-02T06:03:14.231Z,9.53
2019-05-02T06:05:42.693Z,10.80
2019-05-02T06:08:13.883Z,9.33
2019-05-02T06:10:58.173Z,12.87
2019-05-02T06:13:24.903Z,9.97
2019-05-02T06:16:02.193Z,9.57
2019-05-02T06:18:20.838Z,9.27
2019-05-02T06:20:48.043Z,9.70
2019-05-02T06:23:15.753Z,11.23
2019-05-02T06:25:43.005Z,11.13
2019-05-02T06:28:10.197Z,12.43
2019-05-02T06:30:37.497Z,11.90
2019-05-02T06:33:46.891Z,10.53
2019-05-02T06:36:14.518Z,12.73
2019-05-02T06:38:41.643Z,9.83
2019-05-02T06:41:08.736Z,9.37
2019-05-02T06:43:35.938Z,10.20
2019-05-02T06:46:15.380Z,9.03
2019-05-02T06:48:32.428Z,11.70
2019-05-02T06:50:59.561Z,10.53
2019-05-02T06:53:26.728Z,9.47
2019-05-02T06:55:53.883Z,10.30
2019-05-02T06:58:21.150Z,10.20
2019-05-02T07:00:57.352Z,10.77
2019-05-02T07:03:17.571Z,11.97
2019-05-02T07:05:44.727Z,8.63
2019-05-02T07:08:13.986Z,10.83
2019-05-02T07:10:55.895Z,12.73
2019-05-02T07:13:23.196Z,11.17
2019-05-02T07:16:10.389Z,10.50
2019-05-02T07:21:31.373Z,9.87
2019-05-02T07:23:58.480Z,12.67
2019-05-02T07:26:26.120Z,11.47
2019-05-02T07:28:53.244Z,11.50
2019-05-02T07:31:20.402Z,10.53
2019-05-02T07:33:47.544Z,9.67
2019-05-02T07:36:14.904Z,9.73
2019-05-02T07:38:42.070Z,11.03
2019-05-02T07:41:09.224Z,12.27
2019-05-02T07:43:36.329Z,11.43
2019-05-02T07:46:03.905Z,10.90
2019-05-02T07:48:31.308Z,13.47
2019-05-02T07:51:21.300Z,13.80
2019-05-02T07:53:48.556Z,11.53
2019-05-02T07:56:17.693Z,11.17
2019-05-02T07:58:48.012Z,13.43
2019-05-02T08:02:12.274Z,12.27
2019-05-02T08:04:43.577Z,12.17
2019-05-02T08:07:08.307Z,12.53
2019-05-02T08:09:39.295Z,14.93
2019-05-02T08:12:25.439Z,13.73
2019-05-02T08:14:52.991Z,14.77
2019-05-02T08:17:20.564Z,14.57
2019-05-02T08:19:47.740Z,14.03
2019-05-02T08:22:15.068Z,16.30
2019-05-02T08:24:42.441Z,13.97
2019-05-02T08:27:34.743Z,13.93
2019-05-02T08:30:00.117Z,18.10
2019-05-02T08:32:27.735Z,15.97
2019-05-02T08:34:55.181Z,18.57
2019-05-02T08:37:22.303Z,18.17
2019-05-02T08:39:49.404Z,15.90
2019-05-02T08:42:16.540Z,16.63
2019-05-02T08:44:51.293Z,20.60
2019-05-02T08:47:28.415Z,16.67
2019-05-02T08:49:43.652Z,15.23
2019-05-02T08:52:10.554Z,16.03
2019-05-02T08:54:37.430Z,14.60
2019-05-02T08:57:46.105Z,16.80
2019-05-02T09:00:13.635Z,18.33
2019-05-02T09:02:41.881Z,14.83
2019-05-02T09:05:09.924Z,16.40
2019-05-02T09:07:39.339Z,14.50
2019-05-02T09:10:07.785Z,18.37
2019-05-02T09:12:36.701Z,16.87
2019-05-02T09:15:04.311Z,14.70
2019-05-02T09:17:56.221Z,18.07
2019-05-02T09:20:21.488Z,15.60
2019-05-02T09:22:52.268Z,15.37
2019-05-02T09:25:18.838Z,17.47
2019-05-02T09:27:46.000Z,16.03
2019-05-02T09:30:17.020Z,17.93
2019-05-02T09:32:42.746Z,17.73
2019-05-02T09:35:11.674Z,19.57
2019-05-02T09:37:41.699Z,17.20
2019-05-02T09:40:12.592Z,19.93
2019-05-02T09:42:37.964Z,17.13
2019-05-02T09:48:03.978Z,18.20
2019-05-02T09:50:29.524Z,16.93
2019-05-02T09:52:52.370Z,16.50
2019-05-02T09:55:22.597Z,20.17
2019-05-02T09:57:51.908Z,17.30
2019-05-02T10:01:02.027Z,18.03
2019-05-02T10:03:49.152Z,17.00
2019-05-02T10:06:18.284Z,17.27
2019-05-02T10:08:46.735Z,16.67
2019-05-02T10:11:17.011Z,18.07
2019-05-02T10:13:43.153Z,19.80
2019-05-02T10:16:09.910Z,24.03
2019-05-02T10:19:00.339Z,19.00
2019-05-02T10:21:25.599Z,18.63
2019-05-02T10:23:59.126Z,19.47
2019-05-02T10:26:41.944Z,18.53
2019-05-02T10:29:09.973Z,19.37
2019-05-02T10:31:38.048Z,18.13
2019-05-02T10:34:08.502Z,17.37
2019-05-02T10:36:35.749Z,19.87
2019-05-02T10:39:28.445Z,19.97
2019-05-02T10:42:13.450Z,21.67
2019-05-02T10:44:40.311Z,22.30
2019-05-02T10:47:07.033Z,16.70
2019-05-02T10:49:42.751Z,18.47
2019-05-02T10:52:09.487Z,20.47
2019-05-02T10:54:37.479Z,19.73
2019-05-02T10:57:05.313Z,19.60
2019-05-02T10:59:32.928Z,21.03
2019-05-02T11:02:19.611Z,18.83
2019-05-02T11:07:37.475Z,22.60
2019-05-02T11:10:25.779Z,19.50
2019-05-02T11:13:12.591Z,17.50
2019-05-02T11:15:59.078Z,18.50
2019-05-02T11:21:04.408Z,19.77
2019-05-02T11:23:32.700Z,19.70
2019-05-02T11:25:59.122Z,18.83
2019-05-02T11:28:25.877Z,17.40
2019-05-02T11:30:56.929Z,19.83
2019-05-02T11:33:22.938Z,19.23
2019-05-02T11:35:53.391Z,17.37
2019-05-02T11:38:37.572Z,18.67
2019-05-02T11:40:49.248Z,18.77
2019-05-02T11:43:16.337Z,17.30
2019-05-02T11:45:43.581Z,17.33
2019-05-02T11:48:11.971Z,19.50
2019-05-02T11:50:39.691Z,16.53
2019-05-02T11:53:29.420Z,18.10
2019-05-02T11:55:58.366Z,18.87
2019-05-02T11:58:24.334Z,17.87
2019-05-02T12:00:52.306Z,18.90
2019-05-02T12:03:42.157Z,17.03
2019-05-02T12:06:28.865Z,19.30
2019-05-02T12:08:56.221Z,21.47
2019-05-02T12:11:23.924Z,16.43
2019-05-02T12:13:52.818Z,16.00
2019-05-02T12:16:32.854Z,23.13
2019-05-02T12:19:09.444Z,16.53
2019-05-02T12:21:32.317Z,17.37
2019-05-02T12:24:01.673Z,16.97
2019-05-02T12:26:49.084Z,24.10
2019-05-02T12:29:16.238Z,18.90
2019-05-02T12:32:03.095Z,17.43
2019-05-02T12:34:32.422Z,18.40
2019-05-02T12:37:19.121Z,17.67
2019-05-02T12:39:45.890Z,16.93
2019-05-02T12:42:13.204Z,16.30
2019-05-02T12:44:42.589Z,18.07
2019-05-02T12:47:31.930Z,18.07
2019-05-02T12:49:59.599Z,16.13
2019-05-02T12:52:26.662Z,16.43
2019-05-02T12:54:54.431Z,15.40
2019-05-02T12:57:22.140Z,15.57
2019-05-02T12:59:49.334Z,16.03
2019-05-02T13:05:13.208Z,15.63
2019-05-02T13:07:42.806Z,14.67
2019-05-02T13:12:45.333Z,14.87
2019-05-02T13:15:12.878Z,15.17
2019-05-02T13:17:53.306Z,15.07
2019-05-02T13:20:37.047Z,15.67
2019-05-02T13:23:43.523Z,13.87
2019-05-02T13:26:19.823Z,17.00
2019-05-02T13:28:41.753Z,16.13
2019-05-02T13:31:28.151Z,14.00
2019-05-02T13:40:12.004Z,13.80
2019-05-02T13:42:39.360Z,13.20
2019-05-02T13:45:47.364Z,13.43
2019-05-02T13:48:14.955Z,15.10
2019-05-02T13:51:23.091Z,14.03
2019-05-02T13:54:09.789Z,13.47
2019-05-02T13:56:56.433Z,13.43
2019-05-02T13:59:23.175Z,12.80
2019-05-02T14:02:12.264Z,13.80
2019-05-02T14:04:41.524Z,16.90
2019-05-02T14:07:13.247Z,14.60
2019-05-02T14:09:59.876Z,13.00
2019-05-02T14:18:12.884Z,13.20
2019-05-02T14:20:40.046Z,14.83
2019-05-02T14:23:07.091Z,15.00
2019-05-02T14:25:34.879Z,14.00
2019-05-02T14:28:03.081Z,13.90
2019-05-02T14:30:39.438Z,12.90
2019-05-02T14:36:04.100Z,16.77
2019-05-02T14:38:32.272Z,13.77
2019-05-02T14:41:21.793Z,14.67
2019-05-02T14:43:54.843Z,15.30
2019-05-02T14:49:16.718Z,14.40
2019-05-02T14:51:41.940Z,15.70
2019-05-02T14:54:09.569Z,14.40
2019-05-02T14:59:32.286Z,15.53
2019-05-02T15:07:32.144Z,15.07
2019-05-02T15:10:02.729Z,15.03
2019-05-02T15:12:29.989Z,17.77
2019-05-02T15:14:58.780Z,17.83
2019-05-02T15:17:27.974Z,18.37
2019-05-02T15:19:56.273Z,17.63
2019-05-02T15:22:27.621Z,25.00
2019-05-02T15:24:53.279Z,21.60
2019-05-02T15:27:22.235Z,18.77
2019-05-02T15:29:55.370Z,22.63
2019-05-02T15:32:44.933Z,17.23
2019-05-02T15:35:27.887Z,16.30
2019-05-02T15:37:56.741Z,17.50
2019-05-02T15:42:56.759Z,16.53
2019-05-02T15:45:23.779Z,18.60
2019-05-02T15:47:52.591Z,20.60
2019-05-02T15:50:23.820Z,21.13
2019-05-02T15:55:43.596Z,19.00
2019-05-02T15:58:29.710Z,17.93
2019-05-02T16:01:16.645Z,18.77
2019-05-02T16:03:46.529Z,21.93
2019-05-02T16:06:34.534Z,17.17
2019-05-02T16:09:02.448Z,18.17
2019-05-02T16:11:32.084Z,19.40
2019-05-02T16:14:18.688Z,20.63
2019-05-02T16:16:46.258Z,20.83
2019-05-02T16:19:14.921Z,18.53
2019-05-02T16:22:06.670Z,18.33
2019-05-02T16:24:32.003Z,17.10
2019-05-02T16:26:59.409Z,19.67
2019-05-02T16:29:28.671Z,19.13
2019-05-02T16:32:15.112Z,21.10
2019-05-02T16:35:07.255Z,18.50
2019-05-02T16:37:32.503Z,20.33
2019-05-02T16:39:59.575Z,20.10
2019-05-02T16:42:26.461Z,17.30
2019-05-02T16:44:54.766Z,17.83
2019-05-02T16:47:22.185Z,18.67
2019-05-02T16:49:53.265Z,17.97
2019-05-02T16:52:22.094Z,18.70
2019-05-02T16:54:49.379Z,15.40
2019-05-02T16:57:17.289Z,19.63
2019-05-02T17:00:06.419Z,17.20
2019-05-02T17:02:37.949Z,17.87
2019-05-02T17:05:22.814Z,22.07
2019-05-02T17:08:10.431Z,19.30
2019-05-02T17:10:42.206Z,18.50
2019-05-02T17:13:12.509Z,17.70
2019-05-02T17:15:39.927Z,19.83
2019-05-02T17:18:12.731Z,18.27
2019-05-02T17:20:36.835Z,18.33
2019-05-02T17:23:07.539Z,19.83
2019-05-02T17:25:52.701Z,21.97
2019-05-02T17:28:22.187Z,19.87
2019-05-02T17:30:49.243Z,21.17
2019-05-02T17:33:16.569Z,22.87
2019-05-02T17:35:49.616Z,20.20
2019-05-02T17:38:13.102Z,23.90
2019-05-02T17:40:42.020Z,20.33
2019-05-02T17:43:09.835Z,21.40
2019-05-02T17:45:38.612Z,20.63
2019-05-02T17:48:10.406Z,22.43
2019-05-02T17:50:58.955Z,22.10
2019-05-02T17:53:23.592Z,21.33
2019-05-02T17:55:52.567Z,22.90
2019-05-02T17:58:21.502Z,28.13
2019-05-02T18:04:01.868Z,26.93
2019-05-02T18:06:32.967Z,27.53
2019-05-02T18:08:57.922Z,27.83
2019-05-02T18:11:29.616Z,27.70
2019-05-02T18:13:54.235Z,27.17
2019-05-02T18:16:22.100Z,31.10
2019-05-02T18:18:49.356Z,30.50
2019-05-02T18:21:17.289Z,27.13
2019-05-02T18:23:46.815Z,29.60
2019-05-02T18:26:14.602Z,26.83
2019-05-02T18:28:48.975Z,31.73
2019-05-02T18:31:12.182Z,30.43
2019-05-02T18:33:41.095Z,27.07
2019-05-02T18:36:09.245Z,29.90
2019-05-02T18:38:36.386Z,30.70
2019-05-02T18:41:06.182Z,29.07
2019-05-02T18:43:36.081Z,28.97
2019-05-02T18:46:05.920Z,29.07
2019-05-02T18:48:31.816Z,29.47
2019-05-02T18:51:19.066Z,27.17
2019-05-02T18:53:47.255Z,29.37
2019-05-02T18:56:14.053Z,28.73
2019-05-02T18:58:45.224Z,31.40
2019-05-02T19:01:14.009Z,26.60
2019-05-02T19:03:38.810Z,26.53
2019-05-02T19:06:28.005Z,28.13
2019-05-02T19:09:17.473Z,28.80
2019-05-02T19:11:44.840Z,27.30
2019-05-02T19:14:16.716Z,26.70
2019-05-02T19:16:42.522Z,27.07
2019-05-02T19:19:09.468Z,25.40
2019-05-02T19:21:39.403Z,27.33
2019-05-02T19:24:04.977Z,28.50
2019-05-02T19:26:32.616Z,27.43
2019-05-02T19:29:23.527Z,26.97
2019-05-02T19:32:12.057Z,25.67
2019-05-02T19:34:38.806Z,27.43
2019-05-02T19:37:05.935Z,28.20
2019-05-02T19:40:14.946Z,27.97
2019-05-02T19:42:44.903Z,25.93
2019-05-02T19:45:16.453Z,28.97
2019-05-02T19:47:42.017Z,28.77
2019-05-02T19:50:41.652Z,27.57
2019-05-02T19:53:05.302Z,29.67
2019-05-02T19:55:32.357Z,30.23
2019-05-02T19:58:02.431Z,30.73
2019-05-02T20:00:28.246Z,28.33
2019-05-02T20:02:55.287Z,30.63
2019-05-02T20:05:25.470Z,31.87
2019-05-02T20:07:51.975Z,27.77
2019-05-02T20:10:19.761Z,29.53
2019-05-02T20:12:48.185Z,25.67
2019-05-02T20:15:57.177Z,26.97
2019-05-02T20:18:27.975Z,25.17
2019-05-02T20:23:35.654Z,30.37
2019-05-02T20:26:02.504Z,27.93
2019-05-02T20:28:29.288Z,27.77
2019-05-02T20:30:56.088Z,27.03
2019-05-02T20:33:22.959Z,27.67
2019-05-02T20:35:49.711Z,26.90
2019-05-02T20:38:16.575Z,26.30
2019-05-02T20:40:43.405Z,26.60
2019-05-02T20:43:12.005Z,26.60
2019-05-02T20:45:38.907Z,25.83
2019-05-02T20:48:05.839Z,26.67
2019-05-02T20:50:32.704Z,25.70
2019-05-02T20:52:59.526Z,25.03
2019-05-02T20:55:26.406Z,24.63
2019-05-02T20:57:53.123Z,26.47
2019-05-02T21:00:39.529Z,28.07
2019-05-02T21:03:06.338Z,24.83
2019-05-02T21:08:32.596Z,25.97
2019-05-02T21:14:09.070Z,29.30
2019-05-02T21:16:35.794Z,24.30
2019-05-02T21:19:02.663Z,23.60
2019-05-02T21:22:10.528Z,22.40
2019-05-02T21:24:37.884Z,20.17
2019-05-02T21:27:05.446Z,18.60
2019-05-02T21:29:32.630Z,15.23
2019-05-02T21:31:59.705Z,17.77
2019-05-02T21:34:26.822Z,16.00
2019-05-02T21:36:54.242Z,17.33
2019-05-02T21:39:22.513Z,16.50
2019-05-02T21:41:51.683Z,16.97
2019-05-02T21:44:19.052Z,16.17
2019-05-02T21:46:45.685Z,17.90
2019-05-02T21:55:05.549Z,15.70
2019-05-02T21:57:32.641Z,18.20
2019-05-02T22:00:02.320Z,12.77
2019-05-02T22:02:29.204Z,13.27
2019-05-02T22:04:56.525Z,13.83
2019-05-02T22:07:23.619Z,14.07
2019-05-02T22:09:52.402Z,13.40
2019-05-02T22:12:38.889Z,12.53
2019-05-02T22:15:05.843Z,9.30
2019-05-02T22:17:32.566Z,6.00
2019-05-02T22:20:01.677Z,6.00
2019-05-02T22:22:28.337Z,5.43
2019-05-02T22:24:55.418Z,5.43
2019-05-02T22:27:22.180Z,4.13
2019-05-02T22:30:02.212Z,4.97
2019-05-02T22:32:29.379Z,4.13
2019-05-02T22:34:56.438Z,3.63
2019-05-02T22:42:38.584Z,4.63
2019-05-02T22:45:05.501Z,4.50
2019-05-02T22:47:32.224Z,4.50
2019-05-02T22:49:59.276Z,5.60
2019-05-02T22:52:26.045Z,5.30
2019-05-02T22:54:52.665Z,3.47
2019-05-02T22:57:19.463Z,4.30
2019-05-02T22:59:46.186Z,4.50
2019-05-02T23:04:47.885Z,3.53
2019-05-02T23:07:14.747Z,5.17
2019-05-02T23:09:43.374Z,3.63
2019-05-02T23:12:10.234Z,3.30
2019-05-02T23:14:36.955Z,3.30
2019-05-02T23:17:03.727Z,3.87
2019-05-02T23:19:31.733Z,5.60
2019-05-02T23:21:59.605Z,4.93
2019-05-02T23:27:42.391Z,5.23
2019-05-02T23:30:51.903Z,4.27
2019-05-02T23:33:19.637Z,5.07
2019-05-02T23:35:46.675Z,3.53
2019-05-02T23:38:13.489Z,3.80
2019-05-02T23:40:41.997Z,3.20
2019-05-02T23:43:08.963Z,4.00
2019-05-02T23:45:35.672Z,5.33
2019-05-02T23:48:02.995Z,5.93
2019-05-02T23:50:29.631Z,5.97
2019-05-02T23:52:56.603Z,4.60
2019-05-02T23:55:23.443Z,5.87
2019-05-02T23:57:51.798Z,7.13
